Time;durP1;ratioP1;P1;durP2;ratioP2;P2;SDS_P1;SDS_P2;PMS_P1;PMS_P2;Temp;Humidity;BMP_temperature;BMP_pressure;BME280_temperature;BME280_humidity;BME280_pressure;Samples;Min_cycle;Max_cycle;Signal;HPM_P1;HPM_P2
2021/11/28 00:01:40;;;;;;;21.63;12.43;;;;;;;10.77;100.00;100261.81;5139273;27;20408;-67
2021/11/28 00:04:06;;;;;;;21.97;11.03;;;;;;;10.88;100.00;100262.78;5132272;27;20400;-63
2021/11/28 00:06:34;;;;;;;20.13;10.73;;;;;;;10.93;100.00;100260.66;5128312;27;20423;-66
2021/11/28 00:09:30;;;;;;;28.43;12.67;;;;;;;10.96;100.00;100266.53;5132497;27;20158;-64
2021/11/28 00:11:58;;;;;;;16.17;10.73;;;;;;;10.89;100.00;100267.94;5142951;27;20412;-63
2021/11/28 00:14:23;;;;;;;18.40;10.77;;;;;;;10.82;100.00;100264.94;5144923;27;20475;-66
2021/11/28 00:16:49;;;;;;;16.13;9.90;;;;;;;10.83;100.00;100266.59;5135151;27;20400;-66
2021/11/28 00:19:14;;;;;;;19.93;11.63;;;;;;;10.84;100.00;100268.28;5138994;27;20205;-63
2021/11/28 00:21:40;;;;;;;21.07;10.50;;;;;;;10.86;100.00;100268.16;5132619;27;20181;-66
2021/11/28 00:24:05;;;;;;;23.80;11.30;;;;;;;10.96;100.00;100269.16;5132638;27;21062;-64
2021/11/28 00:26:32;;;;;;;18.87;9.90;;;;;;;11.06;100.00;100264.84;5132593;27;20158;-65
2021/11/28 00:28:58;;;;;;;16.70;9.77;;;;;;;11.14;100.00;100261.66;5150766;27;20161;-67
2021/11/28 00:31:24;;;;;;;21.77;9.87;;;;;;;11.28;100.00;100268.47;5136853;27;20448;-68
2021/11/28 00:33:49;;;;;;;15.53;9.03;;;;;;;11.34;100.00;100258.31;5134219;27;20477;-65
2021/11/28 00:36:16;;;;;;;19.70;9.43;;;;;;;11.40;100.00;100259.63;5117359;27;20181;-69
2021/11/28 00:38:41;;;;;;;15.60;10.33;;;;;;;11.47;100.00;100254.72;5136843;27;20415;-66
2021/11/28 00:41:07;;;;;;;16.03;9.83;;;;;;;11.54;100.00;100251.47;5131143;27;20174;-63
2021/11/28 00:43:32;;;;;;;11.80;7.27;;;;;;;11.66;100.00;100244.44;5132032;27;20167;-63
2021/11/28 00:45:58;;;;;;;22.47;10.43;;;;;;;11.77;100.00;100238.28;5131839;27;20254;-63
2021/11/28 00:48:28;;;;;;;14.43;8.70;;;;;;;11.79;100.00;100245.13;5133256;27;20427;-62
2021/11/28 00:51:10;;;;;;;21.27;9.30;;;;;;;11.76;100.00;100245.34;5126859;27;20191;-62
2021/11/28 00:53:36;;;;;;;13.93;8.67;;;;;;;11.74;100.00;100231.50;5125595;27;20519;-64
2021/11/28 00:56:01;;;;;;;20.03;8.03;;;;;;;11.78;100.00;100243.44;5147620;27;21101;-66
2021/11/28 00:58:27;;;;;;;22.63;9.70;;;;;;;11.84;100.00;100234.25;5131535;27;20189;-65
2021/11/28 01:00:53;;;;;;;14.67;7.93;;;;;;;11.85;100.00;100242.00;5130931;27;20175;-62
2021/11/28 01:03:18;;;;;;;15.33;8.80;;;;;;;11.89;100.00;100248.72;5138393;27;20842;-66
2021/11/28 01:05:44;;;;;;;16.90;9.17;;;;;;;11.97;100.00;100236.75;5130322;27;20500;-67
2021/11/28 01:08:09;;;;;;;13.00;7.30;;;;;;;12.04;100.00;100243.19;5130697;27;20206;-63
2021/11/28 01:10:35;;;;;;;18.70;8.37;;;;;;;12.08;100.00;100231.44;5130873;27;20702;-65
2021/11/28 01:13:00;;;;;;;13.97;8.07;;;;;;;12.04;100.00;100233.50;5130824;27;20288;-68
2021/11/28 01:15:26;;;;;;;18.33;7.50;;;;;;;12.16;100.00;100226.38;5130429;27;20653;-66
2021/11/28 01:17:51;;;;;;;15.57;8.53;;;;;;;12.12;100.00;100222.34;5130137;27;20409;-68
2021/11/28 01:20:17;;;;;;;19.40;10.00;;;;;;;12.11;100.00;100218.03;5130296;27;20214;-69
2021/11/28 01:22:43;;;;;;;18.10;8.93;;;;;;;12.23;100.00;100222.28;5130852;27;20174;-64
2021/11/28 01:25:11;;;;;;;21.80;10.00;;;;;;;12.20;100.00;100219.91;5133200;27;20174;-70
2021/11/28 01:27:37;;;;;;;20.10;8.77;;;;;;;12.14;100.00;100218.59;5139094;27;20242;-67
2021/11/28 01:30:05;;;;;;;18.53;9.27;;;;;;;12.18;100.00;100214.78;5130328;27;20485;-62
2021/11/28 01:32:30;;;;;;;22.33;9.60;;;;;;;12.11;100.00;100218.03;5130157;27;20297;-61
2021/11/28 01:34:56;;;;;;;14.80;9.20;;;;;;;12.06;100.00;100207.03;5130791;27;20431;-62
2021/11/28 01:37:21;;;;;;;15.40;8.63;;;;;;;12.09;100.00;100219.94;5128246;27;20178;-65
2021/11/28 01:39:47;;;;;;;18.47;7.97;;;;;;;12.22;100.00;100210.06;5130783;27;20174;-65
2021/11/28 01:42:13;;;;;;;17.70;8.37;;;;;;;12.37;100.00;100211.44;5132643;27;20286;-65
2021/11/28 01:44:39;;;;;;;13.10;7.97;;;;;;;12.36;100.00;100214.22;5133436;27;20177;-65
2021/11/28 01:47:04;;;;;;;14.50;8.27;;;;;;;12.35;100.00;100218.63;5130098;27;20170;-65
2021/11/28 01:49:30;;;;;;;14.60;7.87;;;;;;;12.34;100.00;100219.59;5130506;27;20224;-65
2021/11/28 01:51:56;;;;;;;19.87;6.90;;;;;;;12.33;100.00;100233.75;5129534;27;20558;-63
2021/11/28 01:54:22;;;;;;;19.83;8.33;;;;;;;12.34;100.00;100219.59;5129381;27;20194;-64
2021/11/28 01:56:49;;;;;;;18.20;7.63;;;;;;;12.26;100.00;100213.31;5130219;27;20414;-64
2021/11/28 01:59:16;;;;;;;12.47;6.80;;;;;;;12.33;100.00;100217.94;5129733;27;20439;-67
2021/11/28 02:01:42;;;;;;;15.33;6.67;;;;;;;12.42;100.00;100217.19;5129813;27;20439;-67
2021/11/28 02:04:09;;;;;;;20.37;6.87;;;;;;;12.43;100.00;100212.75;5129576;27;20911;-69
2021/11/28 02:06:35;;;;;;;14.77;8.73;;;;;;;12.47;100.00;100209.72;5129804;27;20418;-66
2021/11/28 02:09:02;;;;;;;14.30;7.67;;;;;;;12.44;100.00;100215.25;5129858;27;20421;-66
2021/11/28 02:11:28;;;;;;;12.20;5.93;;;;;;;12.48;100.00;100227.22;5130000;27;20414;-65
2021/11/28 02:13:53;;;;;;;14.83;6.97;;;;;;;12.44;100.00;100217.03;5129871;27;20440;-68
2021/11/28 02:16:19;;;;;;;11.97;7.67;;;;;;;12.44;100.00;100212.59;5129904;27;20162;-64
2021/11/28 02:18:44;;;;;;;16.80;6.23;;;;;;;12.46;100.00;100212.47;5129317;27;20190;-66
2021/11/28 02:21:11;;;;;;;17.83;7.57;;;;;;;12.42;100.00;100213.72;5131575;27;20182;-65
2021/11/28 02:23:38;;;;;;;16.23;7.20;;;;;;;12.41;100.00;100206.78;5129290;27;20177;-65
2021/11/28 02:26:06;;;;;;;11.17;6.70;;;;;;;12.46;100.00;100202.75;5128726;27;20502;-66
2021/11/28 02:28:34;;;;;;;17.57;6.87;;;;;;;12.46;100.00;100192.22;5128986;27;20492;-67
2021/11/28 02:30:59;;;;;;;13.40;6.77;;;;;;;12.37;100.00;100198.25;5129377;27;21048;-67
2021/11/28 02:33:25;;;;;;;14.93;6.90;;;;;;;12.35;100.00;100199.38;5129390;27;20455;-65
2021/11/28 02:35:50;;;;;;;14.27;7.00;;;;;;;12.31;100.00;100192.66;5126137;27;20182;-64
2021/11/28 02:38:16;;;;;;;13.27;6.70;;;;;;;12.29;100.00;100187.53;5128538;27;20188;-66
2021/11/28 02:40:43;;;;;;;19.13;7.80;;;;;;;12.33;100.00;100183.69;5129283;27;20174;-66
2021/11/28 02:43:09;;;;;;;16.80;6.70;;;;;;;12.31;100.00;100180.34;5129310;27;20171;-68
2021/11/28 02:45:35;;;;;;;19.37;6.70;;;;;;;12.36;100.00;100166.78;5129083;27;20423;-61
2021/11/28 02:48:05;;;;;;;11.83;6.63;;;;;;;12.35;100.00;100160.69;5129090;27;20473;-61
2021/11/28 02:50:31;;;;;;;16.13;6.53;;;;;;;12.30;100.00;100152.31;5129384;27;20408;-62
2021/11/28 02:53:04;;;;;;;10.93;6.33;;;;;;;12.34;100.00;100145.84;5128851;28;20979;-66
2021/11/28 02:55:36;;;;;;;19.50;4.73;;;;;;;12.35;100.00;100147.50;5126222;28;20282;-65
2021/11/28 02:58:03;;;;;;;10.37;5.63;;;;;;;12.43;100.00;100134.53;5131342;27;21021;-63
2021/11/28 03:00:32;;;;;;;7.93;4.50;;;;;;;12.46;100.00;100130.78;5131635;27;20415;-65
2021/11/28 03:02:58;;;;;;;11.63;4.70;;;;;;;12.42;100.00;100129.41;5131510;28;20423;-64
2021/11/28 03:05:23;;;;;;;9.87;4.40;;;;;;;12.40;100.00;100118.16;5131414;28;20408;-66
2021/11/28 03:07:49;;;;;;;8.70;4.83;;;;;;;12.40;100.00;100121.63;5131497;28;20170;-66
2021/11/28 03:10:37;;;;;;;10.40;4.43;;;;;;;12.46;100.00;100107.06;5131820;28;20193;-65
2021/11/28 03:13:28;;;;;;;15.43;5.10;;;;;;;12.40;100.00;100107.63;5131374;27;20681;-68
2021/11/28 03:15:59;;;;;;;10.80;4.97;;;;;;;12.41;100.00;100107.50;5130739;27;20432;-64
2021/11/28 03:18:27;;;;;;;11.77;5.43;;;;;;;12.48;100.00;100113.06;5131451;28;20396;-63
2021/11/28 03:20:55;;;;;;;10.63;5.20;;;;;;;12.54;100.00;100120.44;5130722;28;20408;-64
2021/11/28 03:23:24;;;;;;;10.40;4.53;;;;;;;12.48;100.00;100116.53;5134951;27;20404;-62
2021/11/28 03:25:49;;;;;;;13.67;4.13;;;;;;;12.57;100.00;100114.09;5130562;28;20999;-65
2021/11/28 03:28:17;;;;;;;11.40;4.23;;;;;;;12.50;100.00;100111.97;5131245;28;20419;-66
2021/11/28 03:30:46;;;;;;;12.80;4.27;;;;;;;12.54;100.00;100111.69;5131018;28;20993;-64
2021/11/28 03:33:12;;;;;;;8.10;4.23;;;;;;;12.53;100.00;100110.03;5131074;28;20875;-66
2021/11/28 03:35:37;;;;;;;8.93;4.07;;;;;;;12.48;100.00;100103.38;5130536;28;21046;-66
2021/11/28 03:38:04;;;;;;;8.20;4.10;;;;;;;12.47;100.00;100104.34;5129727;28;20447;-67
2021/11/28 03:40:29;;;;;;;8.60;4.47;;;;;;;12.57;100.00;100108.81;5131348;28;20170;-64
2021/11/28 03:42:55;;;;;;;9.50;5.20;;;;;;;12.54;100.00;100109.06;5130427;28;20593;-66
2021/11/28 03:45:21;;;;;;;11.00;5.20;;;;;;;12.57;100.00;100107.00;5130948;28;20177;-64
2021/11/28 03:47:47;;;;;;;10.10;5.23;;;;;;;12.53;100.00;100100.31;5131139;27;20175;-65
2021/11/28 03:50:14;;;;;;;10.53;4.60;;;;;;;12.59;100.00;100112.16;5134410;27;20174;-63
2021/11/28 03:52:40;;;;;;;12.73;4.53;;;;;;;12.63;100.00;100103.88;5133878;27;20529;-64
2021/11/28 03:55:07;;;;;;;16.27;5.87;;;;;;;12.61;100.00;100111.03;5134757;27;20488;-63
2021/11/28 03:57:32;;;;;;;16.83;6.90;;;;;;;12.53;100.00;100108.22;5133620;27;20177;-68
2021/11/28 03:59:58;;;;;;;9.33;4.90;;;;;;;12.51;100.00;100102.25;5134207;27;20415;-64
2021/11/28 04:02:24;;;;;;;12.77;4.83;;;;;;;12.49;100.00;100098.94;5134829;27;20261;-66
2021/11/28 04:04:50;;;;;;;8.50;5.27;;;;;;;12.43;100.00;100096.81;5133846;27;20676;-63
2021/11/28 04:07:16;;;;;;;10.50;4.63;;;;;;;12.45;100.00;100100.97;5133879;27;20427;-65
2021/11/28 04:09:41;;;;;;;11.63;5.13;;;;;;;12.45;100.00;100098.34;5134873;27;20577;-65
2021/11/28 04:12:08;;;;;;;13.10;5.93;;;;;;;12.42;100.00;100089.88;5133708;27;20277;-65
2021/11/28 04:14:33;;;;;;;10.40;5.20;;;;;;;12.39;100.00;100093.63;5134306;27;20712;-64
2021/11/28 04:16:59;;;;;;;13.00;5.47;;;;;;;12.49;100.00;100088.38;5133893;27;20408;-67
2021/11/28 04:19:24;;;;;;;8.90;6.03;;;;;;;12.44;100.00;100091.41;5133853;27;20746;-64
2021/11/28 04:21:50;;;;;;;8.60;5.43;;;;;;;12.43;100.00;100086.28;5132385;27;20307;-65
2021/11/28 04:24:15;;;;;;;11.47;6.50;;;;;;;12.40;100.00;100090.00;5134418;27;20182;-63
2021/11/28 04:26:41;;;;;;;13.67;6.10;;;;;;;12.37;100.00;100087.63;5115647;27;20641;-64
2021/11/28 04:29:07;;;;;;;15.20;5.60;;;;;;;12.36;100.00;100085.13;5133571;27;20645;-63
2021/11/28 04:31:32;;;;;;;9.90;4.50;;;;;;;12.47;100.00;100085.06;5133630;27;20299;-66
2021/11/28 04:33:58;;;;;;;11.03;6.40;;;;;;;12.43;100.00;100081.00;5134109;27;20225;-66
2021/11/28 04:36:23;;;;;;;11.17;5.20;;;;;;;12.42;100.00;100082.81;5132350;27;20185;-68
2021/11/28 04:38:49;;;;;;;14.40;6.30;;;;;;;12.35;100.00;100071.13;5133149;27;20167;-68
2021/11/28 04:41:15;;;;;;;10.20;4.07;;;;;;;12.39;100.00;100062.00;5132922;27;20653;-63
2021/11/28 04:43:40;;;;;;;11.93;4.33;;;;;;;12.38;100.00;100059.47;5132645;27;20223;-64
2021/11/28 04:46:05;;;;;;;10.70;4.60;;;;;;;12.40;100.00;100055.75;5141181;27;20598;-64
2021/11/28 04:48:31;;;;;;;9.10;4.73;;;;;;;12.39;100.00;100058.50;5145401;27;20154;-64
2021/11/28 04:50:57;;;;;;;14.27;5.07;;;;;;;12.34;100.00;100069.44;5133368;27;20163;-63
2021/11/28 04:53:22;;;;;;;11.30;5.17;;;;;;;12.29;100.00;100070.81;5133656;27;20186;-65
2021/11/28 04:55:48;;;;;;;12.83;5.10;;;;;;;12.28;100.00;100062.06;5133648;27;20241;-65
2021/11/28 04:58:14;;;;;;;9.60;4.70;;;;;;;12.27;100.00;100064.84;5133482;27;20215;-68
2021/11/28 05:00:40;;;;;;;8.93;5.10;;;;;;;12.30;100.00;100060.13;5131696;27;20892;-66
2021/11/28 05:03:05;;;;;;;13.97;6.10;;;;;;;12.28;100.00;100064.69;5134021;27;20420;-65
2021/11/28 05:05:31;;;;;;;8.90;5.60;;;;;;;12.36;100.00;100070.16;5134102;27;20242;-64
2021/11/28 05:07:56;;;;;;;9.97;4.80;;;;;;;12.38;100.00;100062.09;5133096;27;20166;-64
2021/11/28 05:10:22;;;;;;;12.47;5.53;;;;;;;12.39;100.00;100069.03;5133898;27;20194;-65
2021/11/28 05:12:48;;;;;;;10.03;4.30;;;;;;;12.42;100.00;100063.53;5151651;27;20564;-64
2021/11/28 05:15:14;;;;;;;13.13;4.47;;;;;;;12.42;100.00;100059.09;5133065;27;20177;-68
2021/11/28 05:17:40;;;;;;;8.60;4.93;;;;;;;12.46;100.00;100051.75;5126460;27;20535;-65
2021/11/28 05:20:06;;;;;;;7.43;3.87;;;;;;;12.49;100.00;100043.59;5133849;27;20395;-64
2021/11/28 05:22:31;;;;;;;9.40;4.70;;;;;;;12.53;100.00;100041.53;5129853;27;20175;-70
2021/11/28 05:24:57;;;;;;;8.80;4.30;;;;;;;12.55;100.00;100031.69;5143594;27;20435;-63
2021/11/28 05:27:23;;;;;;;13.03;4.33;;;;;;;12.60;100.00;100042.66;5134403;27;20269;-68
2021/11/28 05:29:49;;;;;;;13.33;4.20;;;;;;;12.56;100.00;100031.56;5133420;27;20227;-70
2021/11/28 05:32:14;;;;;;;9.50;3.80;;;;;;;12.54;100.00;100045.81;5129456;27;20190;-67
2021/11/28 05:34:40;;;;;;;8.83;4.73;;;;;;;12.50;100.00;100064.53;5133967;27;20436;-68
2021/11/28 05:37:06;;;;;;;12.00;5.13;;;;;;;12.50;100.00;100076.88;5132786;27;20502;-67
2021/11/28 05:39:31;;;;;;;7.77;4.10;;;;;;;12.48;100.00;100084.09;5143299;27;20287;-64
2021/11/28 05:41:58;;;;;;;9.93;3.97;;;;;;;12.47;100.00;100078.00;5145840;27;20285;-68
2021/11/28 05:44:24;;;;;;;11.80;4.30;;;;;;;12.44;100.00;100080.88;5133564;27;20181;-65
2021/11/28 05:46:49;;;;;;;8.60;3.73;;;;;;;12.45;100.00;100090.44;5133048;27;20446;-64
2021/11/28 05:49:15;;;;;;;7.60;4.10;;;;;;;12.50;100.00;100097.97;5132753;27;20547;-65
2021/11/28 05:51:41;;;;;;;9.10;4.73;;;;;;;12.58;100.00;100102.56;5132535;27;20539;-63
2021/11/28 05:54:06;;;;;;;14.17;5.00;;;;;;;12.59;100.00;100102.44;5132359;27;20946;-63
2021/11/28 05:56:32;;;;;;;7.90;5.10;;;;;;;12.59;100.00;100093.69;5132990;27;20174;-65
2021/11/28 05:58:57;;;;;;;10.33;4.93;;;;;;;12.73;100.00;100094.19;5132876;27;20166;-64
2021/11/28 06:01:23;;;;;;;19.10;5.70;;;;;;;12.70;100.00;100093.63;5142767;27;20166;-65
2021/11/28 06:03:49;;;;;;;13.03;3.63;;;;;;;12.74;100.00;100098.50;5142901;27;20538;-64
2021/11/28 06:06:14;;;;;;;12.20;4.33;;;;;;;12.80;100.00;100099.78;5132060;27;20476;-65
2021/11/28 06:08:41;;;;;;;9.50;4.30;;;;;;;12.80;100.00;100101.56;5139217;27;20181;-63
2021/11/28 06:11:06;;;;;;;9.83;4.27;;;;;;;12.75;100.00;100100.16;5138957;27;20227;-62
2021/11/28 06:13:32;;;;;;;8.50;3.60;;;;;;;12.83;100.00;100090.75;5132280;27;20455;-65
2021/11/28 06:15:57;;;;;;;10.97;4.63;;;;;;;12.83;100.00;100104.75;5124694;27;20626;-63
2021/11/28 06:18:23;;;;;;;7.50;3.40;;;;;;;12.90;100.00;100103.28;5112120;28;20245;-63
2021/11/28 06:20:49;;;;;;;9.30;4.80;;;;;;;12.98;100.00;100098.16;5125969;27;20190;-63
2021/11/28 06:23:14;;;;;;;10.93;5.20;;;;;;;13.03;100.00;100093.31;5138993;27;20552;-65
2021/11/28 06:25:41;;;;;;;9.43;5.13;;;;;;;13.12;100.00;100109.31;5132194;27;20796;-65
2021/11/28 06:28:06;;;;;;;7.20;4.20;;;;;;;13.20;100.00;100109.50;5132244;27;20170;-65
2021/11/28 06:30:32;;;;;;;8.00;4.40;;;;;;;13.27;100.00;100110.63;5131534;27;20886;-67
2021/11/28 06:32:59;;;;;;;12.77;5.07;;;;;;;13.38;100.00;100114.97;5131867;27;20202;-67
2021/11/28 06:35:25;;;;;;;12.43;4.83;;;;;;;13.39;100.00;100116.66;5131425;27;20171;-62
2021/11/28 06:37:51;;;;;;;13.90;5.10;;;;;;;13.39;100.00;100109.56;5131721;27;20412;-64
2021/11/28 06:40:16;;;;;;;17.13;4.70;;;;;;;13.36;100.00;100114.25;5132035;27;20189;-65
2021/11/28 06:42:42;;;;;;;10.97;4.23;;;;;;;13.37;100.00;100132.59;5131311;27;20412;-62
2021/11/28 06:45:09;;;;;;;13.70;5.37;;;;;;;13.53;100.00;100138.22;5151340;27;20165;-65
2021/11/28 06:47:34;;;;;;;8.10;4.43;;;;;;;13.62;100.00;100133.91;5139246;27;20608;-64
2021/11/28 06:50:00;;;;;;;10.20;5.10;;;;;;;13.74;100.00;100132.78;5131791;27;20983;-65
2021/11/28 06:52:25;;;;;;;9.93;5.50;;;;;;;13.85;100.00;100134.47;5131275;27;20190;-64
2021/11/28 06:54:51;;;;;;;8.80;5.67;;;;;;;13.95;100.00;100134.47;5131924;27;20173;-66
2021/11/28 06:57:16;;;;;;;15.70;6.43;;;;;;;14.00;100.00;100121.69;5131436;28;20177;-64
2021/11/28 06:59:42;;;;;;;8.37;4.50;;;;;;;13.94;100.00;100101.94;5132667;27;20166;-66
2021/11/28 07:02:08;;;;;;;12.23;5.80;;;;;;;13.98;100.00;100094.56;5146905;27;20737;-64
2021/11/28 07:04:34;;;;;;;16.30;6.50;;;;;;;13.92;100.00;100090.69;5151673;27;20161;-66
2021/11/28 07:06:59;;;;;;;12.80;7.70;;;;;;;13.88;100.00;100081.38;5131709;28;20434;-66
2021/11/28 07:09:27;;;;;;;13.70;8.07;;;;;;;13.83;100.00;100076.53;5132062;28;20177;-67
2021/11/28 07:11:52;;;;;;;10.60;6.80;;;;;;;13.90;100.00;100082.06;5131346;28;20526;-66
2021/11/28 07:14:18;;;;;;;13.13;7.23;;;;;;;14.00;100.00;100088.19;5131256;28;20450;-68
2021/11/28 07:16:43;;;;;;;8.50;5.60;;;;;;;14.09;100.00;100092.63;5131433;28;20169;-65
2021/11/28 07:19:09;;;;;;;9.70;6.40;;;;;;;14.11;100.00;100101.22;5131575;28;20270;-65
2021/11/28 07:21:34;;;;;;;11.63;5.90;;;;;;;14.07;100.00;100102.50;5131819;28;20151;-66
2021/11/28 07:24:01;;;;;;;10.07;6.00;;;;;;;14.23;100.00;100109.03;5134154;27;20171;-68
2021/11/28 07:26:26;;;;;;;10.37;5.20;;;;;;;14.39;100.00;100098.69;5135567;27;20686;-67
2021/11/28 07:28:52;;;;;;;10.60;5.20;;;;;;;14.45;100.00;100084.91;5135611;27;20391;-64
2021/11/28 07:31:18;;;;;;;10.77;4.70;;;;;;;14.47;100.00;100085.63;5133401;27;20213;-65
2021/11/28 07:33:44;;;;;;;22.40;7.10;;;;;;;14.36;100.00;100086.59;5133761;27;20206;-62
2021/11/28 07:36:10;;;;;;;10.80;4.63;;;;;;;14.37;100.00;100090.91;5134656;27;20789;-63
2021/11/28 07:38:35;;;;;;;10.47;5.47;;;;;;;14.33;100.00;100091.31;5134278;27;20442;-62
2021/11/28 07:41:02;;;;;;;11.03;6.33;;;;;;;14.29;100.00;100084.69;5146208;27;20272;-67
2021/11/28 07:43:27;;;;;;;10.37;6.63;;;;;;;14.28;100.00;100098.84;5148768;27;20503;-66
2021/11/28 07:45:53;;;;;;;11.23;6.17;;;;;;;14.29;100.00;100105.81;5140644;27;20403;-68
2021/11/28 07:48:19;;;;;;;13.30;6.93;;;;;;;14.37;100.00;100114.69;5140301;27;20193;-67
2021/11/28 07:50:44;;;;;;;10.33;5.80;;;;;;;14.49;100.00;100117.19;5133844;27;20468;-66
2021/11/28 07:53:10;;;;;;;11.47;6.60;;;;;;;14.61;100.00;100122.19;5134473;27;20239;-65
2021/11/28 07:55:35;;;;;;;9.43;5.50;;;;;;;14.62;100.00;100126.47;5133833;27;20154;-68
2021/11/28 07:58:03;;;;;;;10.03;6.00;;;;;;;14.69;100.00;100127.56;5135024;27;20163;-61
2021/11/28 08:00:29;;;;;;;9.43;4.20;;;;;;;14.73;100.00;100136.03;5134054;27;20178;-65
2021/11/28 08:02:54;;;;;;;10.77;4.23;;;;;;;14.81;100.00;100144.13;5132706;27;20849;-62
2021/11/28 08:05:20;;;;;;;7.40;4.10;;;;;;;14.96;100.00;100152.38;5134207;27;20223;-65
2021/11/28 08:07:45;;;;;;;8.57;3.80;;;;;;;15.30;100.00;100160.59;5145842;27;20173;-62
2021/11/28 08:10:11;;;;;;;7.43;3.97;;;;;;;15.76;100.00;100161.47;5142917;27;20245;-67
2021/11/28 08:12:37;;;;;;;9.13;4.40;;;;;;;16.08;100.00;100174.19;5133735;27;20190;-66
2021/11/28 08:15:05;;;;;;;9.57;4.00;;;;;;;16.24;100.00;100178.81;5134439;27;20812;-66
2021/11/28 08:17:34;;;;;;;10.20;4.53;;;;;;;16.32;100.00;100184.16;5134381;27;20689;-60
2021/11/28 08:20:00;;;;;;;9.57;4.83;;;;;;;16.33;100.00;100185.88;5133562;27;20385;-63
2021/11/28 08:22:25;;;;;;;9.00;4.87;;;;;;;16.23;100.00;100196.53;5134427;27;20412;-65
2021/11/28 08:24:51;;;;;;;10.77;4.53;;;;;;;16.11;100.00;100189.00;5136290;27;20249;-65
2021/11/28 08:27:18;;;;;;;9.43;4.60;;;;;;;15.99;100.00;100189.19;5133480;27;20175;-61
2021/11/28 08:29:44;;;;;;;7.50;4.37;;;;;;;15.78;100.00;100196.59;5133429;27;20190;-68
2021/11/28 08:32:10;;;;;;;9.33;4.20;;;;;;;16.04;100.00;100189.59;5136763;27;20555;-67
2021/11/28 08:34:37;;;;;;;6.10;4.10;;;;;;;16.57;100.00;100186.03;5125234;27;20432;-67
2021/11/28 08:37:04;;;;;;;6.63;3.40;;;;;;;17.06;100.00;100174.94;5134858;27;20940;-71
2021/11/28 08:39:30;;;;;;;17.50;4.20;;;;;;;17.44;100.00;100145.19;5140336;27;20518;-66
2021/11/28 08:41:55;;;;;;;8.53;4.13;;;;;;;17.78;100.00;100140.84;5133010;27;20939;-62
2021/11/28 08:44:21;;;;;;;10.80;4.90;;;;;;;17.83;100.00;100139.34;5134334;27;20166;-65
2021/11/28 08:46:47;;;;;;;11.87;5.00;;;;;;;17.53;100.00;100143.41;5133454;27;20235;-65
2021/11/28 08:49:12;;;;;;;7.83;4.40;;;;;;;17.26;100.00;100173.69;5133293;27;20151;-68
2021/11/28 08:51:38;;;;;;;13.00;5.13;;;;;;;17.14;100.00;100180.28;5132656;27;20413;-69
2021/11/28 08:54:04;;;;;;;12.07;5.83;;;;;;;17.00;100.00;100202.91;5133136;27;20231;-64
2021/11/28 08:56:29;;;;;;;15.90;11.53;;;;;;;16.81;100.00;100203.16;5134052;27;20249;-67
2021/11/28 08:58:55;;;;;;;10.10;4.13;;;;;;;16.59;100.00;100213.25;5144196;27;20507;-66
2021/11/28 09:01:20;;;;;;;10.50;4.00;;;;;;;16.54;100.00;100204.06;5154392;27;20208;-67
2021/11/28 09:03:46;;;;;;;9.10;4.30;;;;;;;16.55;100.00;100201.28;5153888;27;20177;-67
2021/11/28 09:06:12;;;;;;;7.50;3.77;;;;;;;16.66;100.00;100202.84;5154315;27;20145;-66
2021/11/28 09:08:38;;;;;;;11.87;4.33;;;;;;;16.47;100.00;100211.81;5154525;27;20597;-68
2021/11/28 09:11:05;;;;;;;11.23;4.90;;;;;;;16.50;100.00;100197.44;5154345;27;20903;-67
2021/11/28 09:13:34;;;;;;;13.80;4.57;;;;;;;16.90;100.00;100179.16;5154140;27;20201;-68
2021/11/28 09:16:01;;;;;;;11.97;5.13;;;;;;;17.06;100.00;100167.78;5154083;27;20394;-64
2021/11/28 09:18:40;;;;;;;11.60;4.50;;;;;;;17.00;100.00;100157.78;5152315;27;20375;-64
2021/11/28 09:21:06;;;;;;;11.93;5.33;;;;;;;16.98;100.00;100159.78;5133213;27;20407;-65
2021/11/28 09:26:16;;;;;;;13.53;4.73;;;;;;;17.83;100.00;100142.00;5139953;27;20198;-63
2021/11/28 09:28:41;;;;;;;10.73;4.90;;;;;;;18.43;100.00;100136.34;5154010;27;20391;-62
2021/11/28 09:31:10;;;;;;;8.90;4.17;;;;;;;18.10;100.00;100138.22;5153501;27;20554;-65
2021/11/28 09:33:38;;;;;;;17.10;4.90;;;;;;;17.67;100.00;100134.78;5153706;27;20237;-65
2021/11/28 09:36:04;;;;;;;7.57;4.60;;;;;;;17.21;100.00;100130.84;5153727;27;20399;-65
2021/11/28 09:38:31;;;;;;;11.83;4.10;;;;;;;16.78;100.00;100134.50;5132894;27;20408;-68
2021/11/28 09:41:00;;;;;;;11.90;4.90;;;;;;;16.63;100.00;100144.81;5132659;27;20408;-66
2021/11/28 09:43:27;;;;;;;10.83;4.70;;;;;;;16.70;100.00;100135.28;5132575;27;20866;-69
2021/11/28 09:45:55;;;;;;;14.63;5.10;;;;;;;16.60;100.00;100118.59;5132210;27;20396;-65
2021/11/28 09:48:23;;;;;;;14.30;5.73;;;;;;;16.65;100.00;100122.44;5114560;27;20400;-66
2021/11/28 09:50:51;;;;;;;11.37;4.47;;;;;;;16.40;100.00;100125.06;5132497;27;20445;-62
2021/11/28 09:53:18;;;;;;;12.23;4.90;;;;;;;16.31;100.00;100116.22;5132228;27;20970;-67
2021/11/28 09:55:44;;;;;;;9.27;4.30;;;;;;;16.21;100.00;100116.34;5133029;27;20800;-62
2021/11/28 09:58:10;;;;;;;18.83;5.60;;;;;;;16.22;100.00;100117.16;5132551;27;20778;-61
2021/11/28 10:00:36;;;;;;;12.13;4.90;;;;;;;16.25;100.00;100123.00;5131913;27;20403;-73
2021/11/28 10:03:03;;;;;;;14.50;6.20;;;;;;;16.58;100.00;100132.00;5132300;27;20473;-67
2021/11/28 10:05:29;;;;;;;13.83;5.70;;;;;;;16.69;100.00;100130.06;5133477;27;20514;-64
2021/11/28 10:07:54;;;;;;;15.97;4.50;;;;;;;16.87;100.00;100125.56;5131885;27;20783;-62
2021/11/28 10:10:21;;;;;;;15.43;5.57;;;;;;;17.06;100.00;100127.13;5147511;27;20178;-67
2021/11/28 10:12:50;;;;;;;14.57;4.77;;;;;;;17.06;100.00;100121.84;5132326;27;20189;-63
2021/11/28 10:15:21;;;;;;;13.47;5.33;;;;;;;17.04;100.00;100131.78;5132398;27;20895;-63
2021/11/28 10:17:48;;;;;;;8.10;4.93;;;;;;;17.21;100.00;100125.53;5132448;27;20384;-62
2021/11/28 10:20:19;;;;;;;14.53;5.70;;;;;;;17.87;100.00;100110.63;5131606;27;20784;-65
2021/11/28 10:22:46;;;;;;;10.50;4.70;;;;;;;18.15;100.00;100109.31;5132074;27;20162;-61
2021/11/28 10:25:17;;;;;;;11.30;4.07;;;;;;;18.19;100.00;100110.63;5132256;27;20781;-63
2021/11/28 10:27:46;;;;;;;10.57;4.67;;;;;;;17.84;100.00;100114.44;5131838;27;20776;-62
2021/11/28 10:30:29;;;;;;;17.63;5.50;;;;;;;17.77;100.00;100117.94;5131717;27;21053;-66
2021/11/28 10:32:55;;;;;;;8.77;5.17;;;;;;;17.70;100.00;100118.56;5140087;27;20458;-62
2021/11/28 10:35:22;;;;;;;12.37;5.30;;;;;;;17.61;100.00;100124.84;5152472;27;20516;-62
2021/11/28 10:37:51;;;;;;;8.30;4.23;;;;;;;17.72;100.00;100124.56;5152443;27;20391;-61
2021/11/28 10:40:22;;;;;;;12.47;4.70;;;;;;;17.43;100.00;100113.50;5152223;27;20390;-67
2021/11/28 10:43:05;;;;;;;13.43;4.63;;;;;;;17.52;100.00;100117.00;5152402;27;20448;-61
2021/11/28 10:45:39;;;;;;;18.57;7.03;;;;;;;17.88;100.00;100114.94;5152068;27;20444;-63
2021/11/28 10:48:07;;;;;;;10.67;4.67;;;;;;;17.58;100.00;100111.03;5152143;27;20395;-65
2021/11/28 10:50:36;;;;;;;12.37;5.43;;;;;;;17.86;100.00;100128.41;5148287;27;20462;-69
2021/11/28 10:53:06;;;;;;;11.00;4.77;;;;;;;17.62;100.00;100131.00;5131638;27;20458;-63
2021/11/28 10:55:36;;;;;;;9.20;5.07;;;;;;;17.86;100.00;100131.06;5131491;27;20392;-62
2021/11/28 10:58:08;;;;;;;11.07;4.67;;;;;;;18.00;100.00;100127.75;5130794;27;20420;-64
2021/11/28 11:00:59;;;;;;;11.03;5.27;;;;;;;18.45;100.00;100118.41;5131387;28;20489;-63
2021/11/28 11:03:25;;;;;;;8.77;5.63;;;;;;;19.17;100.00;100104.25;5117089;28;20428;-61
2021/11/28 11:05:53;;;;;;;10.00;5.40;;;;;;;19.59;100.00;100107.38;5130923;28;20551;-64
2021/11/28 11:08:26;;;;;;;11.57;6.30;;;;;;;19.85;100.00;100096.34;5131033;28;20170;-62
2021/11/28 11:11:07;;;;;;;9.20;5.10;;;;;;;20.04;100.00;100087.03;5130671;28;20463;-64
2021/11/28 11:13:33;;;;;;;9.77;5.53;;;;;;;19.94;100.00;100078.44;5131586;28;20447;-63